sensor_id;sensor_type;location;lat;lon;timestamp;pressure;altitude;pressure_sealevel;temperature
20867;BMP280;10593;48.398;10.698;2022-09-09T00:04:26;95964.63;;;23.33
20867;BMP280;10593;48.398;10.698;2022-09-09T00:07:25;95971.03;;;23.29
20867;BMP280;10593;48.398;10.698;2022-09-09T00:10:22;95965.16;;;23.25
20867;BMP280;10593;48.398;10.698;2022-09-09T00:16:07;95971.69;;;23.20
20867;BMP280;10593;48.398;10.698;2022-09-09T00:21:18;95957.34;;;23.13
20867;BMP280;10593;48.398;10.698;2022-09-09T00:23:54;95964.28;;;23.14
20867;BMP280;10593;48.398;10.698;2022-09-09T00:26:44;95961.94;;;23.09
20867;BMP280;10593;48.398;10.698;2022-09-09T00:29:34;95965.59;;;23.07
20867;BMP280;10593;48.398;10.698;2022-09-09T00:32:17;95968.31;;;23.05
20867;BMP280;10593;48.398;10.698;2022-09-09T00:34:52;95971.06;;;23.04
20867;BMP280;10593;48.398;10.698;2022-09-09T00:37:23;95968.56;;;23.02
20867;BMP280;10593;48.398;10.698;2022-09-09T00:39:55;95969.50;;;23.01
20867;BMP280;10593;48.398;10.698;2022-09-09T00:42:43;95967.09;;;22.98
20867;BMP280;10593;48.398;10.698;2022-09-09T00:48:30;95956.94;;;22.94
20867;BMP280;10593;48.398;10.698;2022-09-09T00:51:02;95963.97;;;22.93
20867;BMP280;10593;48.398;10.698;2022-09-09T00:56:36;95955.47;;;22.90
20867;BMP280;10593;48.398;10.698;2022-09-09T01:01:36;95960.00;;;22.88
20867;BMP280;10593;48.398;10.698;2022-09-09T01:04:09;95965.25;;;22.88
20867;BMP280;10593;48.398;10.698;2022-09-09T01:06:38;95963.56;;;22.87
20867;BMP280;10593;48.398;10.698;2022-09-09T01:09:26;95963.56;;;22.87
20867;BMP280;10593;48.398;10.698;2022-09-09T01:12:37;95962.09;;;22.83
20867;BMP280;10593;48.398;10.698;2022-09-09T01:15:17;95957.69;;;22.83
20867;BMP280;10593;48.398;10.698;2022-09-09T01:20:18;95949.94;;;22.82
20867;BMP280;10593;48.398;10.698;2022-09-09T01:23:04;95941.34;;;22.80
20867;BMP280;10593;48.398;10.698;2022-09-09T01:28:55;95940.94;;;22.73
20867;BMP280;10593;48.398;10.698;2022-09-09T01:31:36;95941.03;;;22.72
20867;BMP280;10593;48.398;10.698;2022-09-09T01:34:04;95940.22;;;22.71
20867;BMP280;10593;48.398;10.698;2022-09-09T01:36:48;95934.25;;;22.69
20867;BMP280;10593;48.398;10.698;2022-09-09T01:39:17;95939.59;;;22.68
20867;BMP280;10593;48.398;10.698;2022-09-09T01:41:43;95940.66;;;22.65
20867;BMP280;10593;48.398;10.698;2022-09-09T01:44:09;95939.81;;;22.65
20867;BMP280;10593;48.398;10.698;2022-09-09T01:46:35;95935.59;;;22.62
20867;BMP280;10593;48.398;10.698;2022-09-09T01:49:05;95935.59;;;22.62
20867;BMP280;10593;48.398;10.698;2022-09-09T01:51:32;95934.16;;;22.58
20867;BMP280;10593;48.398;10.698;2022-09-09T01:54:00;95935.81;;;22.59
20867;BMP280;10593;48.398;10.698;2022-09-09T01:59:19;95930.91;;;22.55
20867;BMP280;10593;48.398;10.698;2022-09-09T02:04:44;95929.44;;;22.51
20867;BMP280;10593;48.398;10.698;2022-09-09T02:07:35;95920.88;;;22.49
20867;BMP280;10593;48.398;10.698;2022-09-09T02:10:17;95929.66;;;22.48
20867;BMP280;10593;48.398;10.698;2022-09-09T02:12:51;95920.97;;;22.47
20867;BMP280;10593;48.398;10.698;2022-09-09T02:15:32;95928.00;;;22.47
20867;BMP280;10593;48.398;10.698;2022-09-09T02:18:04;95917.63;;;22.45
20867;BMP280;10593;48.398;10.698;2022-09-09T02:20:34;95919.38;;;22.45
20867;BMP280;10593;48.398;10.698;2022-09-09T02:23:02;95915.09;;;22.44
20867;BMP280;10593;48.398;10.698;2022-09-09T02:25:29;95916.88;;;22.43
20867;BMP280;10593;48.398;10.698;2022-09-09T02:27:56;95913.53;;;22.41
20867;BMP280;10593;48.398;10.698;2022-09-09T02:30:24;95908.41;;;22.40
20867;BMP280;10593;48.398;10.698;2022-09-09T02:32:54;95908.50;;;22.38
20867;BMP280;10593;48.398;10.698;2022-09-09T02:35:24;95899.06;;;22.36
20867;BMP280;10593;48.398;10.698;2022-09-09T02:37:56;95901.78;;;22.34
20867;BMP280;10593;48.398;10.698;2022-09-09T02:40:24;95897.59;;;22.32
20867;BMP280;10593;48.398;10.698;2022-09-09T02:42:50;95894.22;;;22.30
20867;BMP280;10593;48.398;10.698;2022-09-09T02:45:23;95884.81;;;22.27
20867;BMP280;10593;48.398;10.698;2022-09-09T02:48:17;95891.94;;;22.25
20867;BMP280;10593;48.398;10.698;2022-09-09T02:54:31;95901.38;;;22.15
20867;BMP280;10593;48.398;10.698;2022-09-09T02:57:16;95907.56;;;22.14
20867;BMP280;10593;48.398;10.698;2022-09-09T02:59:44;95906.81;;;22.12
20867;BMP280;10593;48.398;10.698;2022-09-09T03:02:11;95904.28;;;22.11
20867;BMP280;10593;48.398;10.698;2022-09-09T03:04:38;95906.19;;;22.09
20867;BMP280;10593;48.398;10.698;2022-09-09T03:07:04;95909.75;;;22.08
20867;BMP280;10593;48.398;10.698;2022-09-09T03:09:31;95908.06;;;22.07
20867;BMP280;10593;48.398;10.698;2022-09-09T03:11:58;95914.34;;;22.04
20867;BMP280;10593;48.398;10.698;2022-09-09T03:14:24;95918.72;;;22.04
20867;BMP280;10593;48.398;10.698;2022-09-09T03:16:54;95915.38;;;22.02
20867;BMP280;10593;48.398;10.698;2022-09-09T03:19:23;95914.66;;;22.00
20867;BMP280;10593;48.398;10.698;2022-09-09T03:21:49;95920.81;;;21.99
20867;BMP280;10593;48.398;10.698;2022-09-09T03:24:15;95914.00;;;21.96
20867;BMP280;10593;48.398;10.698;2022-09-09T03:26:42;95914.88;;;21.97
20867;BMP280;10593;48.398;10.698;2022-09-09T03:29:11;95919.38;;;21.95
20867;BMP280;10593;48.398;10.698;2022-09-09T03:31:39;95926.38;;;21.94
20867;BMP280;10593;48.398;10.698;2022-09-09T03:34:04;95920.41;;;21.92
20867;BMP280;10593;48.398;10.698;2022-09-09T03:36:32;95920.41;;;21.92
20867;BMP280;10593;48.398;10.698;2022-09-09T03:38:58;95917.13;;;21.89
20867;BMP280;10593;48.398;10.698;2022-09-09T03:41:24;95922.38;;;21.89
20867;BMP280;10593;48.398;10.698;2022-09-09T03:43:51;95919.03;;;21.87
20867;BMP280;10593;48.398;10.698;2022-09-09T03:46:22;95919.97;;;21.86
20867;BMP280;10593;48.398;10.698;2022-09-09T03:48:47;95911.47;;;21.82
20867;BMP280;10593;48.398;10.698;2022-09-09T03:51:13;95913.38;;;21.80
20867;BMP280;10593;48.398;10.698;2022-09-09T03:53:39;95906.59;;;21.78
20867;BMP280;10593;48.398;10.698;2022-09-09T03:56:06;95909.19;;;21.78
20867;BMP280;10593;48.398;10.698;2022-09-09T03:58:34;95905.00;;;21.75
20867;BMP280;10593;48.398;10.698;2022-09-09T04:03:30;95901.66;;;21.73
20867;BMP280;10593;48.398;10.698;2022-09-09T04:05:58;95901.75;;;21.72
20867;BMP280;10593;48.398;10.698;2022-09-09T04:08:25;95899.22;;;21.70
20867;BMP280;10593;48.398;10.698;2022-09-09T04:10:52;95899.34;;;21.69
20867;BMP280;10593;48.398;10.698;2022-09-09T04:13:18;95892.44;;;21.68
20867;BMP280;10593;48.398;10.698;2022-09-09T04:15:53;95895.06;;;21.68
20867;BMP280;10593;48.398;10.698;2022-09-09T04:18:20;95893.38;;;21.67
20867;BMP280;10593;48.398;10.698;2022-09-09T04:20:50;95896.09;;;21.65
20867;BMP280;10593;48.398;10.698;2022-09-09T04:23:18;95910.09;;;21.64
20867;BMP280;10593;48.398;10.698;2022-09-09T04:25:48;95904.09;;;21.62
20867;BMP280;10593;48.398;10.698;2022-09-09T04:28:16;95901.59;;;21.61
20867;BMP280;10593;48.398;10.698;2022-09-09T04:30:43;95907.75;;;21.60
20867;BMP280;10593;48.398;10.698;2022-09-09T04:33:10;95912.16;;;21.59
20867;BMP280;10593;48.398;10.698;2022-09-09T04:35:38;95912.25;;;21.58
20867;BMP280;10593;48.398;10.698;2022-09-09T04:38:05;95907.97;;;21.57
20867;BMP280;10593;48.398;10.698;2022-09-09T04:40:33;95902.72;;;21.57
20867;BMP280;10593;48.398;10.698;2022-09-09T04:43:00;95902.72;;;21.57
20867;BMP280;10593;48.398;10.698;2022-09-09T04:45:27;95898.44;;;21.56
20867;BMP280;10593;48.398;10.698;2022-09-09T04:47:53;95903.66;;;21.56
20867;BMP280;10593;48.398;10.698;2022-09-09T04:50:19;95901.88;;;21.56
20867;BMP280;10593;48.398;10.698;2022-09-09T04:52:45;95904.63;;;21.55
20867;BMP280;10593;48.398;10.698;2022-09-09T04:55:11;95902.00;;;21.55
20867;BMP280;10593;48.398;10.698;2022-09-09T04:57:39;95911.72;;;21.53
20867;BMP280;10593;48.398;10.698;2022-09-09T05:00:05;95911.72;;;21.53
20867;BMP280;10593;48.398;10.698;2022-09-09T05:02:31;95921.25;;;21.54
20867;BMP280;10593;48.398;10.698;2022-09-09T05:04:58;95923.88;;;21.54
20867;BMP280;10593;48.398;10.698;2022-09-09T05:07:24;95936.00;;;21.55
20867;BMP280;10593;48.398;10.698;2022-09-09T05:09:51;95930.75;;;21.55
20867;BMP280;10593;48.398;10.698;2022-09-09T05:12:17;95936.81;;;21.55
20867;BMP280;10593;48.398;10.698;2022-09-09T05:14:43;95933.25;;;21.56
20867;BMP280;10593;48.398;10.698;2022-09-09T05:17:10;95939.34;;;21.57
20867;BMP280;10593;48.398;10.698;2022-09-09T05:19:36;95957.66;;;21.57
20867;BMP280;10593;48.398;10.698;2022-09-09T05:22:02;95961.94;;;21.58
20867;BMP280;10593;48.398;10.698;2022-09-09T05:24:28;95967.91;;;21.60
20867;BMP280;10593;48.398;10.698;2022-09-09T05:26:53;95964.47;;;21.59
20867;BMP280;10593;48.398;10.698;2022-09-09T05:29:20;95973.03;;;21.61
20867;BMP280;10593;48.398;10.698;2022-09-09T05:31:46;95977.44;;;21.61
20867;BMP280;10593;48.398;10.698;2022-09-09T05:34:12;95976.47;;;21.62
20867;BMP280;10593;48.398;10.698;2022-09-09T05:36:38;95979.94;;;21.62
20867;BMP280;10593;48.398;10.698;2022-09-09T05:39:04;95976.44;;;21.63
20867;BMP280;10593;48.398;10.698;2022-09-09T05:41:30;95979.88;;;21.64
20867;BMP280;10593;48.398;10.698;2022-09-09T05:43:57;95977.25;;;21.64
20867;BMP280;10593;48.398;10.698;2022-09-09T05:46:25;95971.19;;;21.63
20867;BMP280;10593;48.398;10.698;2022-09-09T05:48:52;95983.34;;;21.64
20867;BMP280;10593;48.398;10.698;2022-09-09T05:51:22;95986.81;;;21.65
20867;BMP280;10593;48.398;10.698;2022-09-09T05:53:49;95983.25;;;21.66
20867;BMP280;10593;48.398;10.698;2022-09-09T05:56:21;95985.94;;;21.64
20867;BMP280;10593;48.398;10.698;2022-09-09T05:58:49;95984.19;;;21.65
20867;BMP280;10593;48.398;10.698;2022-09-09T06:01:21;95985.88;;;21.66
20867;BMP280;10593;48.398;10.698;2022-09-09T06:03:48;95982.31;;;21.67
20867;BMP280;10593;48.398;10.698;2022-09-09T06:06:21;95975.41;;;21.66
20867;BMP280;10593;48.398;10.698;2022-09-09T06:08:51;95984.06;;;21.66
20867;BMP280;10593;48.398;10.698;2022-09-09T06:11:26;95985.88;;;21.66
20867;BMP280;10593;48.398;10.698;2022-09-09T06:13:52;95995.25;;;21.68
20867;BMP280;10593;48.398;10.698;2022-09-09T06:16:23;95982.19;;;21.68
20867;BMP280;10593;48.398;10.698;2022-09-09T06:18:49;95984.81;;;21.68
20867;BMP280;10593;48.398;10.698;2022-09-09T06:21:22;95985.66;;;21.69
20867;BMP280;10593;48.398;10.698;2022-09-09T06:23:49;95975.19;;;21.69
20867;BMP280;10593;48.398;10.698;2022-09-09T06:26:25;95977.81;;;21.69
20867;BMP280;10593;48.398;10.698;2022-09-09T06:28:54;95976.94;;;21.68
20867;BMP280;10593;48.398;10.698;2022-09-09T06:31:23;95973.59;;;21.66
20867;BMP280;10593;48.398;10.698;2022-09-09T06:33:50;95967.56;;;21.66
20867;BMP280;10593;48.398;10.698;2022-09-09T06:36:23;95964.94;;;21.66
20867;BMP280;10593;48.398;10.698;2022-09-09T06:38:49;95972.78;;;21.66
20867;BMP280;10593;48.398;10.698;2022-09-09T06:41:18;95967.56;;;21.66
20867;BMP280;10593;48.398;10.698;2022-09-09T06:43:45;95969.09;;;21.68
20867;BMP280;10593;48.398;10.698;2022-09-09T06:46:17;95962.94;;;21.69
20867;BMP280;10593;48.398;10.698;2022-09-09T06:48:44;95960.22;;;21.71
20867;BMP280;10593;48.398;10.698;2022-09-09T06:51:13;95955.00;;;21.71
20867;BMP280;10593;48.398;10.698;2022-09-09T06:53:41;95960.97;;;21.73
20867;BMP280;10593;48.398;10.698;2022-09-09T06:58:45;95981.69;;;21.76
20867;BMP280;10593;48.398;10.698;2022-09-09T07:01:16;95978.97;;;21.77
20867;BMP280;10593;48.398;10.698;2022-09-09T07:03:47;95990.09;;;21.81
20867;BMP280;10593;48.398;10.698;2022-09-09T07:06:23;95991.75;;;21.82
20867;BMP280;10593;48.398;10.698;2022-09-09T07:08:58;95993.44;;;21.83
20867;BMP280;10593;48.398;10.698;2022-09-09T07:11:29;95986.31;;;21.85
20867;BMP280;10593;48.398;10.698;2022-09-09T07:13:57;95988.00;;;21.86
20867;BMP280;10593;48.398;10.698;2022-09-09T07:16:24;95997.44;;;21.88
20867;BMP280;10593;48.398;10.698;2022-09-09T07:18:51;96000.88;;;21.89
20867;BMP280;10593;48.398;10.698;2022-09-09T07:21:18;96002.53;;;21.90
20867;BMP280;10593;48.398;10.698;2022-09-09T07:23:45;96000.69;;;21.92
20867;BMP280;10593;48.398;10.698;2022-09-09T07:26:17;96000.56;;;21.93
20867;BMP280;10593;48.398;10.698;2022-09-09T07:28:45;96006.66;;;21.94
20867;BMP280;10593;48.398;10.698;2022-09-09T07:31:36;96000.47;;;21.95
20867;BMP280;10593;48.398;10.698;2022-09-09T07:34:03;96011.78;;;21.95
20867;BMP280;10593;48.398;10.698;2022-09-09T07:36:35;96006.44;;;21.97
20867;BMP280;10593;48.398;10.698;2022-09-09T07:39:11;96008.13;;;21.98
20867;BMP280;10593;48.398;10.698;2022-09-09T07:41:42;96016.72;;;22.00
20867;BMP280;10593;48.398;10.698;2022-09-09T07:44:12;96003.75;;;21.98
20867;BMP280;10593;48.398;10.698;2022-09-09T07:46:39;95995.91;;;21.98
20867;BMP280;10593;48.398;10.698;2022-09-09T07:49:05;96017.56;;;22.00
20867;BMP280;10593;48.398;10.698;2022-09-09T07:51:35;96000.06;;;22.01
20867;BMP280;10593;48.398;10.698;2022-09-09T07:54:05;96007.09;;;22.00
20867;BMP280;10593;48.398;10.698;2022-09-09T07:56:33;96004.34;;;22.02
20867;BMP280;10593;48.398;10.698;2022-09-09T07:59:00;96013.88;;;22.03
20867;BMP280;10593;48.398;10.698;2022-09-09T08:01:33;96012.84;;;22.05
20867;BMP280;10593;48.398;10.698;2022-09-09T08:04:05;96011.81;;;22.08
20867;BMP280;10593;48.398;10.698;2022-09-09T08:06:39;96017.78;;;22.10
20867;BMP280;10593;48.398;10.698;2022-09-09T08:09:07;96017.69;;;22.11
20867;BMP280;10593;48.398;10.698;2022-09-09T08:11:33;96017.56;;;22.13
20867;BMP280;10593;48.398;10.698;2022-09-09T08:14:01;96020.94;;;22.15
20867;BMP280;10593;48.398;10.698;2022-09-09T08:16:31;96013.81;;;22.17
20867;BMP280;10593;48.398;10.698;2022-09-09T08:18:57;96021.56;;;22.18
20867;BMP280;10593;48.398;10.698;2022-09-09T08:21:32;96019.69;;;22.20
20867;BMP280;10593;48.398;10.698;2022-09-09T08:24:00;96020.31;;;22.24
20867;BMP280;10593;48.398;10.698;2022-09-09T08:26:39;96020.03;;;22.28
20867;BMP280;10593;48.398;10.698;2022-09-09T08:29:08;96014.47;;;22.33
20867;BMP280;10593;48.398;10.698;2022-09-09T08:31:57;96012.38;;;22.38
20867;BMP280;10593;48.398;10.698;2022-09-09T08:34:25;96012.94;;;22.43
20867;BMP280;10593;48.398;10.698;2022-09-09T08:36:53;96015.03;;;22.50
20867;BMP280;10593;48.398;10.698;2022-09-09T08:39:21;96018.06;;;22.57
20867;BMP280;10593;48.398;10.698;2022-09-09T08:53:05;96021.22;;;22.87
20867;BMP280;10593;48.398;10.698;2022-09-09T08:55:47;96009.47;;;22.92
20867;BMP280;10593;48.398;10.698;2022-09-09T08:58:19;96015.22;;;22.97
20867;BMP280;10593;48.398;10.698;2022-09-09T09:04:33;96003.97;;;23.08
20867;BMP280;10593;48.398;10.698;2022-09-09T09:07:44;96009.00;;;23.11
20867;BMP280;10593;48.398;10.698;2022-09-09T09:10:45;96012.19;;;23.16
20867;BMP280;10593;48.398;10.698;2022-09-09T09:13:20;96013.53;;;23.21
20867;BMP280;10593;48.398;10.698;2022-09-09T09:16:00;96015.72;;;23.27
20867;BMP280;10593;48.398;10.698;2022-09-09T09:18:27;96010.97;;;23.32
20867;BMP280;10593;48.398;10.698;2022-09-09T09:21:16;96016.63;;;23.39
20867;BMP280;10593;48.398;10.698;2022-09-09T09:24:00;96011.91;;;23.44
20867;BMP280;10593;48.398;10.698;2022-09-09T09:26:34;96007.16;;;23.49
20867;BMP280;10593;48.398;10.698;2022-09-09T09:29:12;96002.44;;;23.54
20867;BMP280;10593;48.398;10.698;2022-09-09T09:31:38;96001.25;;;23.58
20867;BMP280;10593;48.398;10.698;2022-09-09T09:34:04;96002.59;;;23.63
20867;BMP280;10593;48.398;10.698;2022-09-09T09:36:52;96005.72;;;23.68
20867;BMP280;10593;48.398;10.698;2022-09-09T09:39:33;96014.19;;;23.71
20867;BMP280;10593;48.398;10.698;2022-09-09T09:42:16;96009.59;;;23.75
20867;BMP280;10593;48.398;10.698;2022-09-09T09:44:43;96005.88;;;23.77
20867;BMP280;10593;48.398;10.698;2022-09-09T09:47:13;96004.00;;;23.79
20867;BMP280;10593;48.398;10.698;2022-09-09T09:49:39;96009.78;;;23.84
20867;BMP280;10593;48.398;10.698;2022-09-09T09:52:21;96012.16;;;23.87
20867;BMP280;10593;48.398;10.698;2022-09-09T09:54:48;96011.22;;;23.88
20867;BMP280;10593;48.398;10.698;2022-09-09T09:57:17;96010.16;;;23.91
20867;BMP280;10593;48.398;10.698;2022-09-09T09:59:44;96006.69;;;23.90
20867;BMP280;10593;48.398;10.698;2022-09-09T10:02:23;96011.72;;;23.93
20867;BMP280;10593;48.398;10.698;2022-09-09T10:05:21;96006.47;;;23.93
20867;BMP280;10593;48.398;10.698;2022-09-09T10:10:48;96013.16;;;23.97
20867;BMP280;10593;48.398;10.698;2022-09-09T10:13:43;96013.88;;;23.99
20867;BMP280;10593;48.398;10.698;2022-09-09T10:17:05;96007.91;;;23.97
20867;BMP280;10593;48.398;10.698;2022-09-09T10:19:37;96006.00;;;23.99
20867;BMP280;10593;48.398;10.698;2022-09-09T10:22:32;96004.25;;;24.00
20867;BMP280;10593;48.398;10.698;2022-09-09T10:25:14;96007.59;;;24.02
20867;BMP280;10593;48.398;10.698;2022-09-09T10:37:18;96009.13;;;24.04
20867;BMP280;10593;48.398;10.698;2022-09-09T10:40:02;96003.78;;;24.06
20867;BMP280;10593;48.398;10.698;2022-09-09T10:42:34;96001.88;;;24.08
20867;BMP280;10593;48.398;10.698;2022-09-09T10:45:18;95994.84;;;24.08
20867;BMP280;10593;48.398;10.698;2022-09-09T10:48:04;96001.03;;;24.07
20867;BMP280;10593;48.398;10.698;2022-09-09T10:56:30;96009.63;;;24.09
20867;BMP280;10593;48.398;10.698;2022-09-09T10:59:09;96007.00;;;24.09
20867;BMP280;10593;48.398;10.698;2022-09-09T11:01:42;96005.94;;;24.12
20867;BMP280;10593;48.398;10.698;2022-09-09T11:04:37;96004.88;;;24.14
20867;BMP280;10593;48.398;10.698;2022-09-09T11:07:10;96006.53;;;24.15
20867;BMP280;10593;48.398;10.698;2022-09-09T11:09:50;96002.00;;;24.17
20867;BMP280;10593;48.398;10.698;2022-09-09T11:12:19;96001.06;;;24.18
20867;BMP280;10593;48.398;10.698;2022-09-09T11:14:57;95999.19;;;24.20
20867;BMP280;10593;48.398;10.698;2022-09-09T11:17:39;96009.53;;;24.22
20867;BMP280;10593;48.398;10.698;2022-09-09T11:20:11;95996.19;;;24.25
20867;BMP280;10593;48.398;10.698;2022-09-09T11:23:00;95992.59;;;24.26
20867;BMP280;10593;48.398;10.698;2022-09-09T11:25:43;95989.88;;;24.27
20867;BMP280;10593;48.398;10.698;2022-09-09T11:34:42;95979.13;;;24.30
20867;BMP280;10593;48.398;10.698;2022-09-09T11:40:23;95977.09;;;24.34
20867;BMP280;10593;48.398;10.698;2022-09-09T11:43:01;95975.09;;;24.37
20867;BMP280;10593;48.398;10.698;2022-09-09T11:45:29;95978.44;;;24.39
20867;BMP280;10593;48.398;10.698;2022-09-09T11:47:58;95979.03;;;24.43
20867;BMP280;10593;48.398;10.698;2022-09-09T11:52:50;95971.53;;;24.49
20867;BMP280;10593;48.398;10.698;2022-09-09T11:55:31;95969.50;;;24.53
20867;BMP280;10593;48.398;10.698;2022-09-09T11:58:21;95967.50;;;24.56
20867;BMP280;10593;48.398;10.698;2022-09-09T12:00:49;95960.22;;;24.60
20867;BMP280;10593;48.398;10.698;2022-09-09T12:03:48;95960.81;;;24.63
20867;BMP280;10593;48.398;10.698;2022-09-09T12:06:31;95971.94;;;24.67
20867;BMP280;10593;48.398;10.698;2022-09-09T12:09:18;95965.59;;;24.69
20867;BMP280;10593;48.398;10.698;2022-09-09T12:11:45;95956.66;;;24.72
20867;BMP280;10593;48.398;10.698;2022-09-09T12:17:23;95966.81;;;24.76
20867;BMP280;10593;48.398;10.698;2022-09-09T12:25:56;95955.09;;;24.80
20867;BMP280;10593;48.398;10.698;2022-09-09T12:28:57;95949.72;;;24.82
20867;BMP280;10593;48.398;10.698;2022-09-09T12:34:33;95950.28;;;24.85
20867;BMP280;10593;48.398;10.698;2022-09-09T12:40:00;95947.31;;;24.90
20867;BMP280;10593;48.398;10.698;2022-09-09T12:42:28;95941.94;;;24.91
20867;BMP280;10593;48.398;10.698;2022-09-09T12:45:00;95946.84;;;24.96
20867;BMP280;10593;48.398;10.698;2022-09-09T12:47:46;95941.44;;;24.97
20867;BMP280;10593;48.398;10.698;2022-09-09T12:50:22;95940.38;;;25.00
20867;BMP280;10593;48.398;10.698;2022-09-09T12:52:53;95936.69;;;25.02
20867;BMP280;10593;48.398;10.698;2022-09-09T12:55:24;95929.50;;;25.04
20867;BMP280;10593;48.398;10.698;2022-09-09T12:57:52;95926.63;;;25.07
20867;BMP280;10593;48.398;10.698;2022-09-09T13:00:24;95914.06;;;25.11
20867;BMP280;10593;48.398;10.698;2022-09-09T13:02:52;95913.81;;;25.14
20867;BMP280;10593;48.398;10.698;2022-09-09T13:05:28;95910.94;;;25.17
20867;BMP280;10593;48.398;10.698;2022-09-09T13:08:05;95909.00;;;25.19
20867;BMP280;10593;48.398;10.698;2022-09-09T13:11:12;95906.19;;;25.22
20867;BMP280;10593;48.398;10.698;2022-09-09T13:13:41;95896.50;;;25.22
20867;BMP280;10593;48.398;10.698;2022-09-09T13:16:33;95892.91;;;25.23
20867;BMP280;10593;48.398;10.698;2022-09-09T13:19:06;95898.16;;;25.23
20867;BMP280;10593;48.398;10.698;2022-09-09T13:21:39;95891.81;;;25.26
20867;BMP280;10593;48.398;10.698;2022-09-09T13:24:25;95892.63;;;25.26
20867;BMP280;10593;48.398;10.698;2022-09-09T13:29:54;95885.72;;;25.25
20867;BMP280;10593;48.398;10.698;2022-09-09T13:32:24;95890.00;;;25.26
20867;BMP280;10593;48.398;10.698;2022-09-09T13:34:56;95879.63;;;25.25
20867;BMP280;10593;48.398;10.698;2022-09-09T13:37:37;95890.97;;;25.25
20867;BMP280;10593;48.398;10.698;2022-09-09T13:40:05;95893.75;;;25.24
20867;BMP280;10593;48.398;10.698;2022-09-09T13:42:37;95901.63;;;25.24
20867;BMP280;10593;48.398;10.698;2022-09-09T13:45:04;95907.00;;;25.22
20867;BMP280;10593;48.398;10.698;2022-09-09T13:47:35;95924.72;;;25.20
20867;BMP280;10593;48.398;10.698;2022-09-09T13:50:25;95952.91;;;25.18
20867;BMP280;10593;48.398;10.698;2022-09-09T13:52:58;95988.31;;;25.14
20867;BMP280;10593;48.398;10.698;2022-09-09T13:55:29;95988.78;;;25.08
20867;BMP280;10593;48.398;10.698;2022-09-09T13:58:03;95975.16;;;25.03
20867;BMP280;10593;48.398;10.698;2022-09-09T14:00:34;95924.00;;;24.96
20867;BMP280;10593;48.398;10.698;2022-09-09T14:03:00;95921.16;;;24.88
20867;BMP280;10593;48.398;10.698;2022-09-09T14:05:28;95919.00;;;24.82
20867;BMP280;10593;48.398;10.698;2022-09-09T14:07:55;95919.50;;;24.76
20867;BMP280;10593;48.398;10.698;2022-09-09T14:10:21;95904.19;;;24.70
20867;BMP280;10593;48.398;10.698;2022-09-09T14:12:47;95897.50;;;24.66
20867;BMP280;10593;48.398;10.698;2022-09-09T14:15:13;95902.06;;;24.64
20867;BMP280;10593;48.398;10.698;2022-09-09T14:17:39;95897.03;;;24.61
20867;BMP280;10593;48.398;10.698;2022-09-09T14:20:07;95896.31;;;24.59
20867;BMP280;10593;48.398;10.698;2022-09-09T14:22:35;95898.81;;;24.61
20867;BMP280;10593;48.398;10.698;2022-09-09T14:25:02;95896.09;;;24.62
20867;BMP280;10593;48.398;10.698;2022-09-09T14:27:28;95901.34;;;24.62
20867;BMP280;10593;48.398;10.698;2022-09-09T14:29:54;95901.34;;;24.62
20867;BMP280;10593;48.398;10.698;2022-09-09T14:32:20;95896.91;;;24.63
20867;BMP280;10593;48.398;10.698;2022-09-09T14:34:46;95891.66;;;24.63
20867;BMP280;10593;48.398;10.698;2022-09-09T14:37:16;95898.47;;;24.65
20867;BMP280;10593;48.398;10.698;2022-09-09T14:39:42;95900.13;;;24.66
20867;BMP280;10593;48.398;10.698;2022-09-09T14:42:13;95905.03;;;24.71
20867;BMP280;10593;48.398;10.698;2022-09-09T14:44:39;95905.03;;;24.71
20867;BMP280;10593;48.398;10.698;2022-09-09T14:47:07;95904.91;;;24.72
20867;BMP280;10593;48.398;10.698;2022-09-09T14:49:36;95908.38;;;24.73
20867;BMP280;10593;48.398;10.698;2022-09-09T14:52:03;95912.78;;;24.72
20867;BMP280;10593;48.398;10.698;2022-09-09T14:54:30;95902.50;;;24.69
20867;BMP280;10593;48.398;10.698;2022-09-09T14:56:56;95908.47;;;24.71
20867;BMP280;10593;48.398;10.698;2022-09-09T14:59:23;95915.31;;;24.74
20867;BMP280;10593;48.398;10.698;2022-09-09T15:01:48;95903.94;;;24.73
20867;BMP280;10593;48.398;10.698;2022-09-09T15:04:14;95914.44;;;24.73
20867;BMP280;10593;48.398;10.698;2022-09-09T15:06:40;95907.41;;;24.74
20867;BMP280;10593;48.398;10.698;2022-09-09T15:09:08;95904.78;;;24.74
20867;BMP280;10593;48.398;10.698;2022-09-09T15:11:37;95905.75;;;24.73
20867;BMP280;10593;48.398;10.698;2022-09-09T15:14:04;95893.66;;;24.70
20867;BMP280;10593;48.398;10.698;2022-09-09T15:16:31;95898.94;;;24.70
20867;BMP280;10593;48.398;10.698;2022-09-09T15:19:01;95910.41;;;24.69
20867;BMP280;10593;48.398;10.698;2022-09-09T15:21:33;95911.34;;;24.68
20867;BMP280;10593;48.398;10.698;2022-09-09T15:24:00;95908.03;;;24.66
20867;BMP280;10593;48.398;10.698;2022-09-09T15:26:26;95909.69;;;24.67
20867;BMP280;10593;48.398;10.698;2022-09-09T15:28:52;95911.34;;;24.68
20867;BMP280;10593;48.398;10.698;2022-09-09T15:31:26;95900.84;;;24.68
20867;BMP280;10593;48.398;10.698;2022-09-09T15:33:56;95899.88;;;24.69
20867;BMP280;10593;48.398;10.698;2022-09-09T15:36:35;95893.81;;;24.69
20867;BMP280;10593;48.398;10.698;2022-09-09T15:39:04;95886.75;;;24.69
20867;BMP280;10593;48.398;10.698;2022-09-09T15:41:33;95891.19;;;24.69
20867;BMP280;10593;48.398;10.698;2022-09-09T15:44:00;95890.34;;;24.68
20867;BMP280;10593;48.398;10.698;2022-09-09T15:46:39;95886.75;;;24.69
20867;BMP280;10593;48.398;10.698;2022-09-09T15:51:37;95884.25;;;24.68
20867;BMP280;10593;48.398;10.698;2022-09-09T15:54:04;95873.59;;;24.69
20867;BMP280;10593;48.398;10.698;2022-09-09T15:56:31;95877.19;;;24.68
20867;BMP280;10593;48.398;10.698;2022-09-09T15:58:58;95858.78;;;24.68
20867;BMP280;10593;48.398;10.698;2022-09-09T16:01:26;95860.47;;;24.69
20867;BMP280;10593;48.398;10.698;2022-09-09T16:03:52;95865.72;;;24.69
20867;BMP280;10593;48.398;10.698;2022-09-09T16:06:22;95861.31;;;24.70
20867;BMP280;10593;48.398;10.698;2022-09-09T16:08:51;95857.72;;;24.71